Time;durP1;ratioP1;P1;durP2;ratioP2;P2;SDS_P1;SDS_P2;PMS_P1;PMS_P2;Temp;Humidity;BMP_temperature;BMP_pressure;BME280_temperature;BME280_humidity;BME280_pressure;Samples;Min_cycle;Max_cycle;Signal;HPM_P1;HPM_P2
2023/03/27 00:01:53;;;;;;;0.90;0.40;;;;;;;;;;106350;1259;61415;-47
2023/03/27 00:04:21;;;;;;;3.60;0.40;;;;;;;;;;106758;1254;59229;-48
2023/03/27 00:06:49;;;;;;;1.10;0.40;;;;;;;;;;105910;1254;60554;-46
2023/03/27 00:09:17;;;;;;;0.70;0.30;;;;;;;;;;105848;1256;59736;-46
2023/03/27 00:11:47;;;;;;;0.70;0.40;;;;;;;;;;106512;1256;59004;-47
2023/03/27 00:14:16;;;;;;;4.30;0.50;;;;;;;;;;106242;1251;61164;-48
2023/03/27 00:16:45;;;;;;;1.00;0.40;;;;;;;;;;106202;1254;60112;-47
2023/03/27 00:19:13;;;;;;;1.20;0.50;;;;;;;;;;107394;1251;60886;-45
2023/03/27 00:21:43;;;;;;;0.90;0.50;;;;;;;;;;107201;1251;58073;-46
2023/03/27 00:24:11;;;;;;;1.40;0.40;;;;;;;;;;105993;1257;59696;-45
2023/03/27 00:26:41;;;;;;;1.10;0.30;;;;;;;;;;105838;1254;61300;-46
2023/03/27 00:29:12;;;;;;;0.60;0.30;;;;;;;;;;106460;1255;59508;-43
2023/03/27 00:31:44;;;;;;;1.10;0.40;;;;;;;;;;105681;1251;60850;-49
2023/03/27 00:34:12;;;;;;;0.70;0.40;;;;;;;;;;105696;1254;59739;-45
2023/03/27 00:36:42;;;;;;;1.30;0.50;;;;;;;;;;105734;1257;59706;-50
2023/03/27 00:39:10;;;;;;;0.60;0.30;;;;;;;;;;105809;1251;61537;-46
2023/03/27 00:41:38;;;;;;;0.50;0.40;;;;;;;;;;105783;1257;59621;-46
2023/03/27 00:44:23;;;;;;;2.90;0.50;;;;;;;;;;105859;1254;60952;-48
2023/03/27 00:46:53;;;;;;;0.50;0.40;;;;;;;;;;105726;1251;60498;-48
2023/03/27 00:49:21;;;;;;;1.20;0.50;;;;;;;;;;105731;1251;59583;-46
2023/03/27 00:51:51;;;;;;;0.70;0.40;;;;;;;;;;109306;1251;61104;-46
2023/03/27 00:54:25;;;;;;;1.40;0.50;;;;;;;;;;109356;1251;57665;-47
2023/03/27 00:56:54;;;;;;;1.50;0.40;;;;;;;;;;109268;1251;60480;-46
2023/03/27 00:59:23;;;;;;;0.60;0.40;;;;;;;;;;109273;1251;57282;-46
2023/03/27 01:01:52;;;;;;;0.60;0.40;;;;;;;;;;109230;1251;57596;-46
2023/03/27 01:04:21;;;;;;;0.40;0.30;;;;;;;;;;109348;1251;60468;-47
2023/03/27 01:06:50;;;;;;;0.60;0.40;;;;;;;;;;109370;1254;58489;-48
2023/03/27 01:09:19;;;;;;;5.70;0.40;;;;;;;;;;109294;1255;60778;-46
2023/03/27 01:12:07;;;;;;;0.60;0.40;;;;;;;;;;109325;1251;57453;-46
2023/03/27 01:14:42;;;;;;;1.10;0.40;;;;;;;;;;108205;1254;59154;-48
2023/03/27 01:17:24;;;;;;;2.70;0.40;;;;;;;;;;109320;1251;61577;-46
2023/03/27 01:19:59;;;;;;;0.50;0.30;;;;;;;;;;109305;1251;58559;-46
2023/03/27 01:22:34;;;;;;;2.00;0.40;;;;;;;;;;108039;1251;60596;-46
2023/03/27 01:25:21;;;;;;;1.90;0.40;;;;;;;;;;109421;1251;58316;-48
2023/03/27 01:28:01;;;;;;;0.60;0.30;;;;;;;;;;109317;1251;58378;-48
2023/03/27 01:30:48;;;;;;;1.80;0.40;;;;;;;;;;109295;1251;60903;-49
2023/03/27 01:33:37;;;;;;;2.20;0.40;;;;;;;;;;105686;1257;60367;-48
2023/03/27 01:36:08;;;;;;;0.50;0.30;;;;;;;;;;106038;1256;61180;-46
2023/03/27 01:38:55;;;;;;;0.50;0.30;;;;;;;;;;105572;1252;60434;-46
2023/03/27 01:41:28;;;;;;;1.10;0.30;;;;;;;;;;105703;1251;60441;-47
2023/03/27 01:44:03;;;;;;;0.40;0.30;;;;;;;;;;105643;1256;62395;-45
2023/03/27 01:46:34;;;;;;;0.70;0.30;;;;;;;;;;105661;1257;60539;-48
2023/03/27 01:49:13;;;;;;;0.70;0.50;;;;;;;;;;105659;1256;60807;-47
2023/03/27 01:51:45;;;;;;;0.40;0.30;;;;;;;;;;105711;1256;60517;-45
2023/03/27 01:54:15;;;;;;;0.70;0.30;;;;;;;;;;105939;1251;60589;-48
2023/03/27 01:56:50;;;;;;;0.60;0.40;;;;;;;;;;105669;1257;62082;-47
2023/03/27 01:59:22;;;;;;;0.60;0.30;;;;;;;;;;105837;1251;60507;-46
2023/03/27 02:01:53;;;;;;;0.70;0.40;;;;;;;;;;105934;1251;60398;-47
2023/03/27 02:04:26;;;;;;;0.80;0.40;;;;;;;;;;105937;1254;60476;-48
2023/03/27 02:06:59;;;;;;;1.70;0.40;;;;;;;;;;105939;1257;58962;-46
2023/03/27 02:09:36;;;;;;;1.10;0.40;;;;;;;;;;105767;1257;62239;-46
2023/03/27 02:12:06;;;;;;;0.50;0.30;;;;;;;;;;106048;1257;60613;-48
2023/03/27 02:14:36;;;;;;;1.50;0.30;;;;;;;;;;106036;1251;61400;-48
2023/03/27 02:17:08;;;;;;;0.80;0.30;;;;;;;;;;105946;1255;61241;-47
2023/03/27 02:19:41;;;;;;;1.50;0.30;;;;;;;;;;105922;1256;60521;-48
2023/03/27 02:22:09;;;;;;;0.50;0.30;;;;;;;;;;106227;1252;62269;-47
2023/03/27 02:24:45;;;;;;;0.40;0.20;;;;;;;;;;106115;1251;60517;-47
2023/03/27 02:27:35;;;;;;;0.30;0.30;;;;;;;;;;106022;1257;60803;-45
2023/03/27 02:30:09;;;;;;;0.30;0.20;;;;;;;;;;106059;1251;60533;-48
2023/03/27 02:32:47;;;;;;;2.10;0.30;;;;;;;;;;106911;1251;59106;-45
2023/03/27 02:35:28;;;;;;;1.10;0.30;;;;;;;;;;106334;1251;63365;-45
2023/03/27 02:38:01;;;;;;;0.40;0.30;;;;;;;;;;106076;1251;60543;-48
2023/03/27 02:40:43;;;;;;;0.50;0.30;;;;;;;;;;105928;1257;60771;-43
2023/03/27 02:43:49;;;;;;;0.80;0.30;;;;;;;;;;105936;1256;60441;-46
2023/03/27 02:46:24;;;;;;;0.60;0.30;;;;;;;;;;105835;1251;60414;-45
2023/03/27 02:48:53;;;;;;;0.50;0.40;;;;;;;;;;106700;1253;62332;-47
2023/03/27 02:51:26;;;;;;;0.70;0.30;;;;;;;;;;105845;1250;60437;-48
2023/03/27 02:54:05;;;;;;;0.60;0.40;;;;;;;;;;105734;1251;60572;-48
2023/03/27 02:56:37;;;;;;;2.00;0.30;;;;;;;;;;106273;1254;60427;-48
2023/03/27 02:59:08;;;;;;;1.50;0.30;;;;;;;;;;106061;1251;60386;-46
2023/03/27 03:01:39;;;;;;;1.10;0.30;;;;;;;;;;106031;1250;61165;-46
2023/03/27 03:04:33;;;;;;;0.40;0.30;;;;;;;;;;105727;1257;60495;-46
2023/03/27 03:07:15;;;;;;;;;;;;;;;;;;106215;1251;60546;-48
2023/03/27 03:09:43;;;;;;;0.60;0.40;;;;;;;;;;106119;1256;60530;-47
2023/03/27 03:12:11;;;;;;;0.60;0.30;;;;;;;;;;105705;1251;60590;-48
2023/03/27 03:14:44;;;;;;;0.70;0.30;;;;;;;;;;106019;1251;62985;-48
2023/03/27 03:17:13;;;;;;;1.20;0.30;;;;;;;;;;105881;1253;60386;-47
2023/03/27 03:19:40;;;;;;;1.30;0.30;;;;;;;;;;105734;1254;60459;-48
2023/03/27 03:22:10;;;;;;;0.60;0.40;;;;;;;;;;106346;1253;60489;-48
2023/03/27 03:24:40;;;;;;;2.60;0.30;;;;;;;;;;106548;1251;60390;-45
2023/03/27 03:27:13;;;;;;;0.60;0.30;;;;;;;;;;106307;1256;60935;-46
2023/03/27 03:29:49;;;;;;;0.90;0.30;;;;;;;;;;105724;1251;60450;-47
2023/03/27 03:32:26;;;;;;;0.40;0.30;;;;;;;;;;105646;1257;60611;-45
2023/03/27 03:34:55;;;;;;;0.40;0.30;;;;;;;;;;109375;1253;58867;-47
2023/03/27 03:37:27;;;;;;;0.90;0.20;;;;;;;;;;106420;1251;59918;-47
2023/03/27 03:39:57;;;;;;;0.90;0.30;;;;;;;;;;109360;1251;62229;-48
2023/03/27 03:42:26;;;;;;;0.70;0.20;;;;;;;;;;106821;1250;59657;-45
2023/03/27 03:44:54;;;;;;;0.70;0.30;;;;;;;;;;109278;1251;60748;-48
2023/03/27 03:47:22;;;;;;;0.60;0.30;;;;;;;;;;109315;1252;59008;-49
2023/03/27 03:49:50;;;;;;;0.40;0.30;;;;;;;;;;109314;1251;58359;-48
2023/03/27 03:52:19;;;;;;;1.70;0.50;;;;;;;;;;109375;1250;62139;-49
2023/03/27 03:54:47;;;;;;;0.50;0.40;;;;;;;;;;109343;1251;58379;-49
2023/03/27 03:57:17;;;;;;;4.10;0.40;;;;;;;;;;109405;1250;60770;-48
2023/03/27 03:59:52;;;;;;;0.40;0.30;;;;;;;;;;109282;1251;58782;-49
2023/03/27 04:02:28;;;;;;;0.70;0.30;;;;;;;;;;109380;1251;58180;-48
2023/03/27 04:05:05;;;;;;;0.60;0.30;;;;;;;;;;109348;1251;62433;-48
2023/03/27 04:07:38;;;;;;;0.40;0.30;;;;;;;;;;109338;1252;58258;-49
2023/03/27 04:10:30;;;;;;;0.60;0.30;;;;;;;;;;109160;1251;59368;-48
2023/03/27 04:13:00;;;;;;;1.10;0.20;;;;;;;;;;109297;1251;58303;-48
2023/03/27 04:15:35;;;;;;;;;;;;;;;;;;109360;1251;58197;-48
2023/03/27 04:18:20;;;;;;;0.30;0.20;;;;;;;;;;107449;1251;62390;-48
2023/03/27 04:20:48;;;;;;;0.50;0.30;;;;;;;;;;109406;1251;58552;-47
2023/03/27 04:23:18;;;;;;;0.60;0.30;;;;;;;;;;109343;1252;59877;-48
2023/03/27 04:25:46;;;;;;;0.50;0.20;;;;;;;;;;109355;1251;59853;-48
2023/03/27 04:28:20;;;;;;;0.40;0.20;;;;;;;;;;109324;1251;58615;-47
2023/03/27 04:30:52;;;;;;;2.30;0.30;;;;;;;;;;109413;1251;61166;-47
2023/03/27 04:33:50;;;;;;;1.10;0.20;;;;;;;;;;109070;1250;58105;-47
2023/03/27 04:36:19;;;;;;;0.40;0.20;;;;;;;;;;105735;1256;60946;-47
2023/03/27 04:38:54;;;;;;;5.30;1.00;;;;;;;;;;105743;1251;60408;-46
2023/03/27 04:41:28;;;;;;;6.40;0.60;;;;;;;;;;105588;1251;60421;-46
2023/03/27 04:43:56;;;;;;;3.10;0.70;;;;;;;;;;105719;1251;62174;-48
2023/03/27 04:46:24;;;;;;;1.50;0.40;;;;;;;;;;105960;1256;60447;-47
2023/03/27 04:48:58;;;;;;;1.70;0.60;;;;;;;;;;105761;1255;60768;-46
2023/03/27 04:51:37;;;;;;;1.00;0.40;;;;;;;;;;105698;1256;60441;-48
2023/03/27 04:54:09;;;;;;;0.40;0.20;;;;;;;;;;105835;1253;60526;-48
2023/03/27 04:56:41;;;;;;;0.60;0.20;;;;;;;;;;105752;1251;62434;-49
2023/03/27 04:59:09;;;;;;;0.40;0.20;;;;;;;;;;107276;1251;60431;-47
2023/03/27 05:01:37;;;;;;;1.10;0.50;;;;;;;;;;106208;1254;60981;-46
2023/03/27 05:04:25;;;;;;;0.40;0.30;;;;;;;;;;106532;1251;60565;-46
2023/03/27 05:07:11;;;;;;;0.40;0.30;;;;;;;;;;105907;1251;60431;-46
2023/03/27 05:09:39;;;;;;;0.60;0.20;;;;;;;;;;106821;1251;62165;-47
2023/03/27 05:12:07;;;;;;;1.50;1.00;;;;;;;;;;105735;1254;60533;-48
2023/03/27 05:14:41;;;;;;;1.90;0.30;;;;;;;;;;105598;1254;61716;-46
2023/03/27 05:17:24;;;;;;;0.60;0.40;;;;;;;;;;105294;1251;60388;-48
2023/03/27 05:19:55;;;;;;;0.70;0.30;;;;;;;;;;105779;1254;60422;-47
2023/03/27 05:22:23;;;;;;;1.10;0.20;;;;;;;;;;106104;1251;61947;-44
2023/03/27 05:24:58;;;;;;;0.90;0.50;;;;;;;;;;106119;1255;60455;-47
2023/03/27 05:27:29;;;;;;;0.90;0.20;;;;;;;;;;105672;1251;60616;-46
2023/03/27 05:29:59;;;;;;;0.90;0.20;;;;;;;;;;105800;1251;60388;-48
2023/03/27 05:32:27;;;;;;;0.40;0.20;;;;;;;;;;106033;1251;60563;-46
2023/03/27 05:35:07;;;;;;;0.30;0.20;;;;;;;;;;105836;1254;62969;-46
2023/03/27 05:37:38;;;;;;;0.70;0.30;;;;;;;;;;109326;1251;58207;-49
2023/03/27 05:40:33;;;;;;;0.40;0.20;;;;;;;;;;108704;1250;60794;-48
2023/03/27 05:43:02;;;;;;;0.20;0.20;;;;;;;;;;107391;1256;60412;-46
2023/03/27 05:45:32;;;;;;;0.20;0.20;;;;;;;;;;105709;1251;61589;-49
2023/03/27 05:48:01;;;;;;;0.40;0.20;;;;;;;;;;105929;1251;62160;-49
2023/03/27 05:50:36;;;;;;;0.30;0.20;;;;;;;;;;106944;1251;61733;-48
2023/03/27 05:53:08;;;;;;;0.60;0.30;;;;;;;;;;107012;1251;60656;-48
2023/03/27 05:55:46;;;;;;;1.10;0.30;;;;;;;;;;105765;1256;60463;-48
2023/03/27 05:58:19;;;;;;;0.40;0.30;;;;;;;;;;105733;1251;60428;-47
2023/03/27 06:00:49;;;;;;;0.40;0.30;;;;;;;;;;106354;1253;62108;-48
2023/03/27 06:03:19;;;;;;;1.10;0.30;;;;;;;;;;105676;1251;60900;-49
2023/03/27 06:06:05;;;;;;;0.80;0.30;;;;;;;;;;105508;1251;60786;-47
2023/03/27 06:08:35;;;;;;;0.70;0.40;;;;;;;;;;106469;1251;60379;-48
2023/03/27 06:11:07;;;;;;;1.30;0.30;;;;;;;;;;105392;1251;60588;-48
2023/03/27 06:13:39;;;;;;;0.60;0.30;;;;;;;;;;105556;1251;62414;-47
2023/03/27 06:16:09;;;;;;;0.50;0.30;;;;;;;;;;105415;1251;59638;-49
2023/03/27 06:18:57;;;;;;;0.90;0.40;;;;;;;;;;105648;1251;60884;-46
2023/03/27 06:21:26;;;;;;;0.60;0.40;;;;;;;;;;106724;1251;60532;-47
2023/03/27 06:23:59;;;;;;;0.60;0.30;;;;;;;;;;105931;1251;60421;-48
2023/03/27 06:26:33;;;;;;;;;;;;;;;;;;105558;1251;62006;-48
2023/03/27 06:29:03;;;;;;;0.40;0.20;;;;;;;;;;106224;1251;60428;-47
2023/03/27 06:31:37;;;;;;;1.30;0.40;;;;;;;;;;105723;1253;60551;-47
2023/03/27 06:34:09;;;;;;;0.40;0.20;;;;;;;;;;105877;1256;60553;-47
2023/03/27 06:36:44;;;;;;;1.20;0.30;;;;;;;;;;105734;1251;60325;-48
2023/03/27 06:39:15;;;;;;;0.50;0.40;;;;;;;;;;105737;1251;62020;-49
2023/03/27 06:41:49;;;;;;;0.60;0.40;;;;;;;;;;105738;1254;60428;-47
2023/03/27 06:44:32;;;;;;;2.20;0.50;;;;;;;;;;105751;1251;60775;-48
2023/03/27 06:47:25;;;;;;;0.90;0.50;;;;;;;;;;109387;1251;58515;-50
2023/03/27 06:50:23;;;;;;;0.60;0.40;;;;;;;;;;108863;1258;58283;-50
2023/03/27 06:52:51;;;;;;;0.50;0.30;;;;;;;;;;109294;1251;60878;-50
2023/03/27 06:55:39;;;;;;;0.50;0.40;;;;;;;;;;109317;1251;58132;-50
2023/03/27 06:58:07;;;;;;;0.60;0.40;;;;;;;;;;109190;1256;60852;-50
2023/03/27 07:00:38;;;;;;;0.50;0.30;;;;;;;;;;109309;1251;58463;-50
2023/03/27 07:03:20;;;;;;;1.60;0.50;;;;;;;;;;109388;1251;58420;-49
2023/03/27 07:06:00;;;;;;;1.30;0.80;;;;;;;;;;109219;1252;61893;-50
2023/03/27 07:08:36;;;;;;;0.70;0.30;;;;;;;;;;109326;1251;58474;-50
2023/03/27 07:11:04;;;;;;;0.80;0.40;;;;;;;;;;109262;1251;59714;-48
2023/03/27 07:13:48;;;;;;;0.50;0.30;;;;;;;;;;109282;1251;60251;-48
2023/03/27 07:16:22;;;;;;;1.20;0.50;;;;;;;;;;109312;1251;58628;-47
2023/03/27 07:18:50;;;;;;;1.10;0.50;;;;;;;;;;109293;1251;62339;-48
2023/03/27 07:21:19;;;;;;;0.80;0.50;;;;;;;;;;109188;1251;58959;-48
2023/03/27 07:23:47;;;;;;;0.60;0.40;;;;;;;;;;109204;1251;61167;-48
2023/03/27 07:26:28;;;;;;;0.70;0.60;;;;;;;;;;109293;1251;58558;-48
2023/03/27 07:29:01;;;;;;;1.00;0.50;;;;;;;;;;109375;1251;58490;-48
2023/03/27 07:31:31;;;;;;;0.80;0.70;;;;;;;;;;109298;1251;61989;-49
2023/03/27 07:34:19;;;;;;;0.70;0.60;;;;;;;;;;109381;1251;58310;-48
2023/03/27 07:37:06;;;;;;;1.70;0.40;;;;;;;;;;109068;1250;60720;-47
2023/03/27 07:39:35;;;;;;;0.50;0.40;;;;;;;;;;105715;1253;60405;-50
2023/03/27 07:42:03;;;;;;;0.50;0.30;;;;;;;;;;105951;1251;60270;-49
2023/03/27 07:44:52;;;;;;;6.10;0.40;;;;;;;;;;105765;1254;61847;-49
2023/03/27 07:47:20;;;;;;;1.00;0.50;;;;;;;;;;106508;1254;59652;-48
2023/03/27 07:49:48;;;;;;;1.50;0.40;;;;;;;;;;105896;1251;60751;-49
2023/03/27 07:52:16;;;;;;;0.70;0.40;;;;;;;;;;105592;1256;60447;-49
2023/03/27 07:54:50;;;;;;;0.40;0.40;;;;;;;;;;105633;1256;60641;-48
2023/03/27 07:57:20;;;;;;;0.70;0.40;;;;;;;;;;105671;1256;61890;-49
2023/03/27 07:59:49;;;;;;;1.20;0.30;;;;;;;;;;106333;1251;60395;-47
2023/03/27 08:02:23;;;;;;;1.40;0.30;;;;;;;;;;105789;1255;60677;-47
2023/03/27 08:04:53;;;;;;;1.20;0.30;;;;;;;;;;105952;1256;61523;-48
2023/03/27 08:07:23;;;;;;;0.30;0.30;;;;;;;;;;105759;1255;60479;-47
2023/03/27 08:09:52;;;;;;;0.70;0.40;;;;;;;;;;105645;1251;62179;-47
2023/03/27 08:12:20;;;;;;;1.40;0.80;;;;;;;;;;105874;1255;60568;-48
2023/03/27 08:14:55;;;;;;;;;;;;;;;;;;105802;1251;61072;-50
2023/03/27 08:17:28;;;;;;;0.40;0.30;;;;;;;;;;105657;1256;60481;-49
2023/03/27 08:19:58;;;;;;;0.70;0.40;;;;;;;;;;105889;1256;61459;-48
2023/03/27 08:22:27;;;;;;;0.50;0.30;;;;;;;;;;105735;1251;63271;-48
2023/03/27 08:25:21;;;;;;;0.60;0.40;;;;;;;;;;105925;1256;60421;-48
2023/03/27 08:27:50;;;;;;;0.40;0.30;;;;;;;;;;108822;1250;59395;-49
2023/03/27 08:30:19;;;;;;;0.30;0.30;;;;;;;;;;105708;1257;60402;-49
2023/03/27 08:32:51;;;;;;;0.90;0.40;;;;;;;;;;106307;1255;60516;-47
2023/03/27 08:35:20;;;;;;;1.30;0.50;;;;;;;;;;105848;1251;62211;-47
2023/03/27 08:37:47;;;;;;;0.60;0.40;;;;;;;;;;106235;1254;59391;-48
2023/03/27 08:40:32;;;;;;;0.40;0.30;;;;;;;;;;105945;1254;60500;-50
2023/03/27 08:43:26;;;;;;;0.50;0.40;;;;;;;;;;106184;1257;60524;-49
2023/03/27 08:45:55;;;;;;;0.60;0.30;;;;;;;;;;105895;1251;60463;-48
2023/03/27 08:48:29;;;;;;;0.60;0.30;;;;;;;;;;106091;1253;61979;-46
2023/03/27 08:51:03;;;;;;;0.70;0.30;;;;;;;;;;106766;1254;59020;-48
2023/03/27 08:53:34;;;;;;;0.50;0.20;;;;;;;;;;106188;1256;60773;-49
2023/03/27 08:56:04;;;;;;;0.40;0.30;;;;;;;;;;105719;1254;60534;-48
2023/03/27 08:58:43;;;;;;;0.50;0.20;;;;;;;;;;105808;1256;60452;-49
2023/03/27 09:01:25;;;;;;;11.30;0.50;;;;;;;;;;105563;1254;62223;-49
2023/03/27 09:04:03;;;;;;;0.40;0.30;;;;;;;;;;105655;1251;60522;-49
2023/03/27 09:06:54;;;;;;;1.30;0.30;;;;;;;;;;106090;1254;60488;-47
2023/03/27 09:09:41;;;;;;;1.00;0.30;;;;;;;;;;105671;1251;61251;-47
2023/03/27 09:12:29;;;;;;;0.20;0.20;;;;;;;;;;105964;1256;60379;-50
2023/03/27 09:14:58;;;;;;;2.50;0.20;;;;;;;;;;105767;1251;61973;-47
2023/03/27 09:17:29;;;;;;;0.40;0.20;;;;;;;;;;106641;1253;60270;-49
2023/03/27 09:20:07;;;;;;;0.40;0.20;;;;;;;;;;106050;1256;60322;-47
2023/03/27 09:22:39;;;;;;;0.40;0.20;;;;;;;;;;106096;1251;60415;-48
2023/03/27 09:25:26;;;;;;;1.50;0.20;;;;;;;;;;105651;1251;142749;-49
2023/03/27 09:28:49;;;;;;;0.30;0.20;;;;;;;14.40;100.00;98318.13;102332;1292;600910;-49
2023/03/27 09:31:30;;;;;;;0.30;0.30;;;;;;;14.45;100.00;98321.73;105566;1271;60733;-50
2023/03/27 09:34:03;;;;;;;1.30;0.20;;;;;;;14.44;100.00;98314.39;106301;1270;61567;-49
2023/03/27 09:36:37;;;;;;;1.30;0.20;;;;;;;14.39;100.00;98313.02;104951;1274;70749;-50
2023/03/27 09:39:07;;;;;;;0.70;0.20;;;;;;;14.30;100.00;98311.02;104764;1266;67475;-49
2023/03/27 09:41:46;;;;;;;0.40;0.20;;;;;;;14.23;100.00;98312.20;104532;1264;261665;-50
2023/03/27 09:44:24;;;;;;;0.30;0.20;;;;;;;14.17;100.00;98315.80;105627;1266;60551;-49
2023/03/27 09:47:05;;;;;;;0.50;0.30;;;;;;;14.12;100.00;98316.41;105382;1271;59264;-48
2023/03/27 09:49:33;;;;;;;2.40;0.20;;;;;;;14.09;100.00;98310.59;104796;1267;72140;-48
2023/03/27 09:52:06;;;;;;;0.30;0.30;;;;;;;14.10;100.00;98307.02;104782;1269;66754;-49
2023/03/27 09:54:52;;;;;;;0.30;0.20;;;;;;;14.14;100.00;98302.16;106443;1263;73209;-49
2023/03/27 09:57:31;;;;;;;1.00;0.30;;;;;;;14.23;100.00;98299.71;108726;1256;60890;-50
2023/03/27 10:00:14;;;;;;;0.20;0.20;;;;;;;14.34;100.00;98299.52;108895;1257;60963;-49
2023/03/27 10:02:47;;;;;;;0.60;0.20;;;;;;;14.46;100.00;98297.44;108717;1257;72132;-49
2023/03/27 10:05:20;;;;;;;1.50;0.30;;;;;;;14.55;100.00;98293.04;108794;1256;67106;-50
2023/03/27 10:07:52;;;;;;;1.40;0.40;;;;;;;14.60;100.00;98287.52;108719;1260;73589;-50
2023/03/27 10:10:44;;;;;;;0.30;0.20;;;;;;;14.68;100.00;98296.39;108460;1257;59362;-48
2023/03/27 10:13:42;;;;;;;0.20;0.20;;;;;;;14.82;100.00;98296.09;107161;1259;59473;-50
2023/03/27 10:16:16;;;;;;;0.70;0.20;;;;;;;14.95;100.00;98291.46;108980;1257;72095;-51
2023/03/27 10:18:54;;;;;;;0.30;0.20;;;;;;;15.09;100.00;98285.45;108858;1260;67616;-51
2023/03/27 10:21:28;;;;;;;0.20;0.20;;;;;;;15.22;100.00;98285.99;108634;1262;72014;-50
2023/03/27 10:24:38;;;;;;;0.20;0.20;;;;;;;15.31;100.00;98286.73;108650;1256;60225;-51
2023/03/27 10:27:33;;;;;;;0.60;0.20;;;;;;;15.39;100.00;98288.52;109023;1257;60259;-50
2023/03/27 10:30:40;;;;;;;1.70;0.40;;;;;;;15.45;100.00;98285.77;108453;1263;72503;-51
2023/03/27 10:33:35;;;;;;;0.30;0.20;;;;;;;15.53;100.00;98287.26;108475;1268;64813;-52
2023/03/27 10:36:39;;;;;;;6.00;0.40;;;;;;;15.58;100.00;98284.70;108445;1263;73510;-51
2023/03/27 10:39:14;;;;;;;4.20;0.20;;;;;;;15.54;100.00;98279.40;108661;1257;59173;-51
2023/03/27 10:42:06;;;;;;;1.90;0.50;;;;;;;15.48;100.00;98283.89;108863;1256;58485;-51
2023/03/27 10:44:36;;;;;;;0.70;0.30;;;;;;;15.42;100.00;98282.98;108585;1257;74267;-51
2023/03/27 10:47:05;;;;;;;2.10;0.20;;;;;;;15.39;100.00;98280.38;108908;1258;66757;-51
2023/03/27 10:49:42;;;;;;;0.40;0.30;;;;;;;15.40;100.00;98273.45;106090;1260;71945;-49
2023/03/27 10:52:38;;;;;;;0.50;0.20;;;;;;;15.46;100.00;98275.81;105744;1264;59823;-51
2023/03/27 10:55:43;;;;;;;0.70;0.20;;;;;;;15.53;100.00;98274.61;107126;1260;59652;-51
2023/03/27 10:58:42;;;;;;;0.30;0.20;;;;;;;15.59;100.00;98267.96;105233;1256;74240;-50
2023/03/27 11:01:20;;;;;;;0.70;0.30;;;;;;;15.63;100.00;98263.25;106146;1269;67043;-50
2023/03/27 11:04:05;;;;;;;0.50;0.30;;;;;;;15.65;100.00;98262.34;105905;1260;72198;-50
2023/03/27 11:06:39;;;;;;;2.70;0.30;;;;;;;15.63;100.00;98262.56;105485;1258;60677;-49
2023/03/27 11:09:22;;;;;;;6.10;0.30;;;;;;;15.58;100.00;98260.21;105619;1261;59885;-49
2023/03/27 11:12:10;;;;;;;3.40;0.30;;;;;;;15.52;100.00;98262.23;108743;1259;74234;-50
2023/03/27 11:14:56;;;;;;;1.30;0.30;;;;;;;15.45;100.00;98263.96;105252;1264;68937;-48
2023/03/27 11:17:32;;;;;;;0.40;0.30;;;;;;;15.38;100.00;98265.33;106028;1260;72980;-49
2023/03/27 11:20:25;;;;;;;0.70;0.10;;;;;;;15.28;100.00;98266.10;108736;1260;60736;-51
2023/03/27 11:22:58;;;;;;;4.00;0.90;;;;;;;15.17;100.00;98267.48;108730;1257;59536;-51
2023/03/27 11:25:50;;;;;;;0.20;0.20;;;;;;;15.05;100.00;98263.45;106255;1261;73474;-49
2023/03/27 11:28:45;;;;;;;2.50;0.30;;;;;;;14.94;100.00;98265.48;105216;1264;66921;-46
2023/03/27 11:31:39;;;;;;;1.80;0.70;;;;;;;14.87;100.00;98263.69;106548;1260;73135;-49
2023/03/27 11:34:32;;;;;;;3.70;1.00;;;;;;;14.81;100.00;98267.45;106083;1258;59742;-51
2023/03/27 11:37:23;;;;;;;1.90;0.70;;;;;;;14.74;100.00;98263.17;105492;1260;61183;-50
2023/03/27 11:40:01;;;;;;;2.50;0.50;;;;;;;14.68;100.00;98258.80;105096;1263;73328;-50
2023/03/27 11:42:32;;;;;;;0.40;0.20;;;;;;;14.64;100.00;98257.35;105796;1259;67281;-49
2023/03/27 11:45:03;;;;;;;0.40;0.20;;;;;;;14.62;100.00;98249.85;105315;1257;73582;-49
2023/03/27 11:48:02;;;;;;;1.30;0.20;;;;;;;14.61;100.00;98247.37;105865;1260;61543;-50
2023/03/27 11:50:42;;;;;;;0.80;0.20;;;;;;;14.64;100.00;98244.60;105622;1256;60147;-50
2023/03/27 11:53:17;;;;;;;0.70;0.20;;;;;;;14.66;100.00;98239.48;108000;1257;72669;-50
2023/03/27 11:56:30;;;;;;;0.50;0.30;;;;;;;14.68;100.00;98241.64;104932;1269;67400;-49
2023/03/27 11:59:26;;;;;;;1.00;0.30;;;;;;;14.70;100.00;98234.81;105280;1261;73385;-48
2023/03/27 12:02:18;;;;;;;0.60;0.30;;;;;;;14.72;100.00;98232.77;105382;1257;61693;-49
2023/03/27 12:04:56;;;;;;;0.40;0.20;;;;;;;14.74;100.00;98232.27;105438;1257;60454;-50
2023/03/27 12:07:54;;;;;;;0.30;0.20;;;;;;;14.76;100.00;98231.73;105147;1258;72470;-48
2023/03/27 12:10:30;;;;;;;0.70;0.30;;;;;;;14.79;100.00;98228.30;105678;1258;68275;-50
2023/03/27 12:13:11;;;;;;;1.00;0.70;;;;;;;14.79;100.00;98224.13;105877;1259;73326;-51
2023/03/27 12:15:42;;;;;;;1.80;0.90;;;;;;;14.79;100.00;98224.50;105172;1263;60094;-47
2023/03/27 12:18:33;;;;;;;1.20;0.50;;;;;;;14.79;100.00;98225.58;105346;1260;61554;-49
2023/03/27 12:21:28;;;;;;;0.90;0.40;;;;;;;14.79;100.00;98225.23;105458;1257;72395;-50
2023/03/27 12:24:25;;;;;;;0.40;0.30;;;;;;;14.79;100.00;98225.35;105371;1264;68266;-50
2023/03/27 12:27:38;;;;;;;0.30;0.20;;;;;;;14.79;100.00;98226.84;104856;1267;73260;-50
2023/03/27 12:30:48;;;;;;;2.40;0.30;;;;;;;14.78;100.00;98223.80;105733;1260;61180;-47
2023/03/27 12:33:40;;;;;;;0.50;0.30;;;;;;;14.78;100.00;98219.11;107802;1260;61179;-48
2023/03/27 12:36:11;;;;;;;0.70;0.30;;;;;;;14.79;100.00;98214.73;105186;1264;72465;-50
2023/03/27 12:38:41;;;;;;;1.60;0.30;;;;;;;14.81;100.00;98217.74;106029;1258;68869;-48
2023/03/27 12:41:23;;;;;;;4.60;0.60;;;;;;;14.83;100.00;98217.02;106504;1261;73061;-50
2023/03/27 12:44:11;;;;;;;1.40;0.20;;;;;;;14.83;100.00;98215.97;105191;1263;59708;-51
2023/03/27 12:46:43;;;;;;;1.00;0.20;;;;;;;14.82;100.00;98212.28;106614;1257;59733;-48
2023/03/27 12:49:12;;;;;;;0.80;0.30;;;;;;;14.80;100.00;98210.48;105450;1260;73254;-51
2023/03/27 12:51:49;;;;;;;0.50;0.30;;;;;;;14.78;100.00;98208.30;106513;1260;67650;-51
2023/03/27 12:55:02;;;;;;;0.40;0.30;;;;;;;14.76;100.00;98207.17;105455;1257;72295;-50
2023/03/27 12:57:57;;;;;;;3.80;0.30;;;;;;;14.74;100.00;98205.91;105483;1257;60448;-48
2023/03/27 13:00:58;;;;;;;1.30;0.40;;;;;;;14.72;100.00;98205.89;105317;1257;60211;-49
2023/03/27 13:04:12;;;;;;;1.50;0.40;;;;;;;14.72;100.00;98205.58;108830;1256;73546;-51
2023/03/27 13:07:12;;;;;;;0.80;0.40;;;;;;;14.71;100.00;98201.85;108616;1258;66676;-51
2023/03/27 13:10:31;;;;;;;1.00;0.60;;;;;;;14.69;100.00;98200.56;108811;1257;73207;-50
2023/03/27 13:13:22;;;;;;;1.80;0.50;;;;;;;14.71;100.00;98202.06;108854;1257;60604;-50
2023/03/27 13:15:56;;;;;;;2.20;0.40;;;;;;;14.70;100.00;98195.44;106672;1257;60768;-50
2023/03/27 13:19:11;;;;;;;0.50;0.40;;;;;;;14.70;100.00;98193.64;105274;1261;73029;-50
2023/03/27 13:22:02;;;;;;;1.60;0.40;;;;;;;14.72;100.00;98190.02;108865;1257;66435;-51
2023/03/27 13:24:58;;;;;;;0.50;0.30;;;;;;;14.74;100.00;98186.97;108637;1255;72156;-51
2023/03/27 13:27:51;;;;;;;0.40;0.30;;;;;;;14.76;100.00;98185.16;108916;1256;59690;-48
2023/03/27 13:30:47;;;;;;;1.20;0.40;;;;;;;14.78;100.00;98184.83;108660;1256;60356;-49
2023/03/27 13:33:39;;;;;;;0.40;0.30;;;;;;;14.81;100.00;98176.75;108788;1257;71129;-49
2023/03/27 13:36:19;;;;;;;1.20;0.40;;;;;;;14.84;100.00;98172.52;108887;1256;68203;-49
2023/03/27 13:38:53;;;;;;;0.40;0.30;;;;;;;14.87;100.00;98169.96;108924;1257;73523;-48
2023/03/27 13:41:43;;;;;;;0.70;0.30;;;;;;;14.87;100.00;98167.89;108920;1257;60566;-49
2023/03/27 13:44:27;;;;;;;0.30;0.20;;;;;;;14.88;100.00;98165.35;108828;1257;59524;-50
2023/03/27 13:47:46;;;;;;;0.20;0.20;;;;;;;14.87;100.00;98166.46;108808;1257;73581;-49
2023/03/27 13:50:41;;;;;;;3.20;0.30;;;;;;;14.87;100.00;98169.91;108525;1257;67839;-51
2023/03/27 13:53:44;;;;;;;2.50;0.30;;;;;;;14.86;100.00;98166.03;108078;1262;70703;-48
2023/03/27 13:56:46;;;;;;;0.60;0.20;;;;;;;14.86;100.00;98162.66;105322;1259;60492;-50
2023/03/27 13:59:42;;;;;;;0.90;0.30;;;;;;;14.83;100.00;98156.34;106359;1257;61017;-50
2023/03/27 14:03:15;;;;;;;0.90;0.20;;;;;;;14.82;100.00;98151.55;105293;1260;72136;-51
2023/03/27 14:06:08;;;;;;;0.30;0.30;;;;;;;14.82;100.00;98149.61;108266;1264;67204;-50
2023/03/27 14:09:15;;;;;;;1.10;0.30;;;;;;;14.85;100.00;98148.60;108129;1263;74861;-50
2023/03/27 14:12:21;;;;;;;0.40;0.30;;;;;;;14.92;100.00;98143.10;105468;1256;60405;-49
2023/03/27 14:15:06;;;;;;;0.90;0.30;;;;;;;14.96;100.00;98136.96;105747;1257;61297;-50
2023/03/27 14:18:10;;;;;;;0.30;0.30;;;;;;;14.98;100.00;98135.44;104962;1261;75425;-50
2023/03/27 14:20:40;;;;;;;0.70;0.30;;;;;;;14.96;100.00;98133.68;105160;1261;68312;-50